Time;durP1;ratioP1;P1;durP2;ratioP2;P2;SDS_P1;SDS_P2;PMS_P1;PMS_P2;Temp;Humidity;BMP_temperature;BMP_pressure;BME280_temperature;BME280_humidity;BME280_pressure;Samples;Min_cycle;Max_cycle;Signal;HPM_P1;HPM_P2
2022/05/18 00:00:15;;;;;;;6.07;1.80;;;13.10;99.90;;;;;;5014962;28;20397;-87
2022/05/18 00:02:41;;;;;;;4.38;2.20;;;13.10;99.90;;;;;;5030908;28;20389;-86
2022/05/18 00:05:07;;;;;;;4.03;2.00;;;13.10;99.90;;;;;;5031705;28;20390;-86
2022/05/18 00:07:33;;;;;;;4.90;2.22;;;13.10;99.90;;;;;;5030452;28;20713;-88
2022/05/18 00:09:59;;;;;;;3.90;2.00;;;13.00;99.90;;;;;;5030537;28;20412;-82
2022/05/18 00:12:25;;;;;;;2.45;1.77;;;13.10;99.90;;;;;;5030208;28;20385;-86
2022/05/18 00:14:52;;;;;;;4.75;2.22;;;13.00;99.90;;;;;;5031697;28;20975;-87
2022/05/18 00:17:18;;;;;;;5.80;2.40;;;13.00;99.90;;;;;;5031431;28;20923;-86
2022/05/18 00:19:44;;;;;;;3.80;2.00;;;13.00;99.90;;;;;;5031666;28;20389;-87
2022/05/18 00:22:10;;;;;;;4.10;1.80;;;13.10;99.90;;;;;;5029986;28;20393;-86
2022/05/18 00:24:35;;;;;;;6.15;2.30;;;13.00;99.90;;;;;;5030141;28;20385;-86
2022/05/18 00:27:04;;;;;;;3.03;2.05;;;13.00;99.90;;;;;;5029817;28;20725;-88
2022/05/18 00:29:31;;;;;;;4.20;2.00;;;12.90;99.90;;;;;;5031017;28;20491;-85
2022/05/18 00:31:56;;;;;;;5.30;2.15;;;12.90;99.90;;;;;;5031373;28;20421;-87
2022/05/18 00:34:22;;;;;;;3.53;2.20;;;12.80;99.90;;;;;;5030126;28;20463;-88
2022/05/18 00:36:48;;;;;;;5.53;2.10;;;12.80;99.90;;;;;;5031120;28;20823;-87
2022/05/18 00:39:13;;;;;;;3.00;1.87;;;12.80;99.90;;;;;;5029818;28;20443;-85
2022/05/18 00:41:39;;;;;;;4.32;2.30;;;12.90;99.90;;;;;;5029639;28;20421;-85
2022/05/18 00:44:05;;;;;;;5.32;2.10;;;12.80;99.90;;;;;;5031864;28;20373;-86
2022/05/18 00:46:31;;;;;;;5.20;2.08;;;12.80;99.90;;;;;;5031115;28;20380;-84
2022/05/18 00:48:57;;;;;;;6.18;2.25;;;12.80;99.90;;;;;;5029599;28;20756;-86
2022/05/18 00:51:25;;;;;;;4.23;2.40;;;12.90;99.90;;;;;;5029461;28;20448;-87
2022/05/18 00:53:57;;;;;;;6.70;2.50;;;12.80;99.90;;;;;;5031296;28;20803;-85
2022/05/18 00:56:31;;;;;;;4.07;2.20;;;12.70;99.90;;;;;;5029167;28;20385;-88
2022/05/18 00:59:09;;;;;;;4.72;2.50;;;12.70;99.90;;;;;;5030141;28;20389;-86
2022/05/18 01:01:35;;;;;;;6.25;2.45;;;12.60;99.90;;;;;;5013887;28;20398;-82
2022/05/18 01:04:03;;;;;;;4.53;2.37;;;12.70;99.90;;;;;;5030817;28;20432;-86
2022/05/18 01:06:32;;;;;;;5.82;2.50;;;12.70;99.90;;;;;;5031357;28;20381;-85
2022/05/18 01:09:22;;;;;;;6.40;2.58;;;12.60;99.90;;;;;;5028764;28;20505;-87
2022/05/18 01:11:48;;;;;;;5.80;3.00;;;12.60;99.90;;;;;;5029359;28;20791;-88
2022/05/18 01:14:20;;;;;;;6.72;2.72;;;12.50;99.90;;;;;;5030709;28;20381;-86
2022/05/18 01:16:47;;;;;;;4.00;2.42;;;12.50;99.90;;;;;;5030272;28;20389;-88
2022/05/18 01:19:39;;;;;;;5.10;2.90;;;12.50;99.90;;;;;;5029944;28;20401;-87
2022/05/18 01:22:10;;;;;;;6.57;2.95;;;12.50;99.90;;;;;;5015186;28;20405;-84
2022/05/18 01:24:44;;;;;;;3.97;2.60;;;12.40;99.90;;;;;;5030321;28;20384;-87
2022/05/18 01:27:10;;;;;;;6.40;2.92;;;12.40;99.90;;;;;;5032018;28;20370;-86
2022/05/18 01:29:37;;;;;;;6.35;2.97;;;12.40;99.90;;;;;;5028456;28;20428;-85
2022/05/18 01:32:05;;;;;;;6.33;2.90;;;12.40;99.90;;;;;;5030351;28;20369;-86
2022/05/18 01:34:34;;;;;;;6.07;3.38;;;12.40;99.90;;;;;;5028537;28;20389;-86
2022/05/18 01:37:00;;;;;;;5.32;2.88;;;12.30;99.90;;;;;;5030179;28;20488;-87
2022/05/18 01:39:36;;;;;;;8.23;3.03;;;12.30;99.90;;;;;;5029766;28;20373;-88
2022/05/18 01:42:13;;;;;;;6.05;3.10;;;12.30;99.90;;;;;;5012773;28;20396;-85
2022/05/18 01:44:41;;;;;;;5.53;2.88;;;12.40;99.90;;;;;;5030636;28;20436;-86
2022/05/18 01:47:07;;;;;;;6.00;2.85;;;12.30;99.90;;;;;;5029913;28;20390;-85
2022/05/18 01:49:39;;;;;;;5.50;2.95;;;12.30;99.90;;;;;;5029670;28;20397;-85
2022/05/18 01:52:08;;;;;;;7.10;3.03;;;12.30;99.90;;;;;;5013084;28;20733;-85
2022/05/18 01:54:41;;;;;;;6.20;3.13;;;12.30;99.90;;;;;;5030966;28;20393;-84
2022/05/18 01:57:07;;;;;;;5.70;2.78;;;12.40;99.90;;;;;;5029988;28;20872;-87
2022/05/18 01:59:35;;;;;;;6.60;3.20;;;12.40;99.90;;;;;;5029386;28;20385;-87
2022/05/18 02:02:00;;;;;;;8.52;3.15;;;12.40;99.90;;;;;;5028865;28;20904;-88
2022/05/18 02:04:26;;;;;;;6.37;3.10;;;12.40;99.90;;;;;;5028424;28;20520;-86
2022/05/18 02:06:51;;;;;;;7.27;2.87;;;12.40;99.90;;;;;;5029245;28;20388;-85
2022/05/18 02:09:19;;;;;;;7.43;2.90;;;12.30;99.90;;;;;;5028678;28;20465;-86
2022/05/18 02:11:46;;;;;;;7.50;2.97;;;12.30;99.90;;;;;;5030011;28;20420;-87
2022/05/18 02:14:11;;;;;;;8.15;3.13;;;12.20;99.90;;;;;;5029238;28;20399;-84
2022/05/18 02:16:38;;;;;;;7.68;2.67;;;12.20;99.90;;;;;;5028712;28;20370;-84
2022/05/18 02:19:04;;;;;;;14.15;3.40;;;12.30;99.90;;;;;;5030542;28;20890;-87
2022/05/18 02:21:30;;;;;;;5.53;2.70;;;12.20;99.90;;;;;;5029676;28;20401;-85
2022/05/18 02:23:56;;;;;;;6.20;2.77;;;12.40;99.90;;;;;;5028619;28;20392;-85
2022/05/18 02:26:22;;;;;;;5.77;2.60;;;12.40;99.90;;;;;;5030923;28;20377;-87
2022/05/18 02:28:48;;;;;;;7.30;2.58;;;12.50;99.90;;;;;;5028096;28;20406;-86
2022/05/18 02:31:14;;;;;;;9.40;2.35;;;12.40;99.90;;;;;;5030203;28;20392;-85
2022/05/18 02:33:40;;;;;;;7.07;2.53;;;12.40;99.90;;;;;;5031158;28;20397;-87
2022/05/18 02:36:07;;;;;;;5.38;2.28;;;12.40;99.90;;;;;;5030389;28;20377;-86
2022/05/18 02:38:34;;;;;;;6.50;2.75;;;12.40;99.90;;;;;;5029018;28;20449;-86
2022/05/18 02:41:00;;;;;;;4.20;2.30;;;12.50;99.90;;;;;;5012352;28;20468;-85
2022/05/18 02:43:27;;;;;;;6.03;2.30;;;12.40;99.90;;;;;;5028931;28;20409;-84
2022/05/18 02:46:14;;;;;;;5.45;2.30;;;12.50;99.90;;;;;;5028855;28;20365;-87
2022/05/18 02:48:40;;;;;;;4.72;2.42;;;12.50;99.90;;;;;;5029981;28;20538;-85
2022/05/18 02:51:07;;;;;;;4.43;2.20;;;12.40;99.90;;;;;;5031222;28;20382;-85
2022/05/18 02:53:34;;;;;;;5.27;2.27;;;12.40;99.90;;;;;;5030367;28;20377;-84
2022/05/18 02:56:06;;;;;;;6.80;2.25;;;12.40;99.90;;;;;;5029999;28;20389;-85
2022/05/18 02:58:39;;;;;;;4.80;2.10;;;12.30;99.90;;;;;;5028798;28;20384;-84
2022/05/18 03:01:13;;;;;;;5.95;2.30;;;12.40;99.90;;;;;;5031013;28;20386;-85
2022/05/18 03:03:39;;;;;;;6.05;2.42;;;12.30;99.90;;;;;;5033836;28;20378;-85
2022/05/18 03:06:07;;;;;;;4.10;2.13;;;12.40;99.90;;;;;;5033869;28;20384;-84
2022/05/18 03:08:37;;;;;;;4.67;1.90;;;12.40;99.90;;;;;;5031859;28;20486;-85
2022/05/18 03:11:04;;;;;;;4.63;2.13;;;12.30;99.90;;;;;;5031349;28;20867;-85
2022/05/18 03:13:29;;;;;;;4.80;1.90;;;12.30;99.90;;;;;;5032970;28;20392;-83
2022/05/18 03:15:56;;;;;;;5.07;2.00;;;12.30;99.90;;;;;;5031056;28;20378;-86
2022/05/18 03:18:22;;;;;;;4.90;2.00;;;12.30;99.90;;;;;;5032683;28;20381;-84
2022/05/18 03:23:33;;;;;;;4.93;1.95;;;12.30;99.90;;;;;;5033219;28;20404;-85
2022/05/18 03:25:59;;;;;;;7.63;1.93;;;12.30;99.90;;;;;;5031088;28;20386;-85
2022/05/18 03:28:25;;;;;;;3.03;1.65;;;12.30;99.90;;;;;;5030417;28;20759;-86
2022/05/18 03:30:51;;;;;;;6.57;2.38;;;12.30;99.90;;;;;;5031668;28;20390;-85
2022/05/18 03:33:17;;;;;;;6.77;2.03;;;12.30;99.90;;;;;;5032245;28;20382;-88
2022/05/18 03:35:45;;;;;;;3.38;1.80;;;12.30;99.90;;;;;;5032932;28;20452;-83
2022/05/18 03:38:11;;;;;;;4.30;2.00;;;12.40;99.90;;;;;;5032320;28;20370;-85
2022/05/18 03:40:40;;;;;;;5.93;2.03;;;12.40;99.70;;;;;;5030941;28;20383;-84
2022/05/18 03:43:08;;;;;;;5.15;1.83;;;12.40;99.90;;;;;;5032696;28;20945;-84
2022/05/18 03:45:34;;;;;;;5.15;1.70;;;;;;;;;;5032029;28;20385;-87
2022/05/18 03:48:01;;;;;;;2.85;1.77;;;;;;;;;;5030793;28;20374;-83
2022/05/18 03:50:30;;;;;;;4.78;1.80;;;;;;;;;;5031455;28;20479;-84
2022/05/18 03:52:58;;;;;;;5.97;2.07;;;12.60;97.90;;;;;;5032295;28;20369;-85
2022/05/18 03:55:25;;;;;;;5.07;1.88;;;12.60;98.00;;;;;;5032595;28;20382;-88
2022/05/18 03:57:51;;;;;;;5.57;2.13;;;12.60;98.40;;;;;;5030302;28;20429;-83
2022/05/18 04:00:17;;;;;;;5.65;1.80;;;12.60;97.70;;;;;;5030821;28;20457;-84
2022/05/18 04:02:47;;;;;;;5.43;1.90;;;12.50;97.60;;;;;;5032263;28;20799;-83
2022/05/18 04:05:14;;;;;;;6.78;1.90;;;12.60;98.10;;;;;;5030136;28;20393;-84
2022/05/18 04:07:40;;;;;;;10.30;2.30;;;12.60;98.30;;;;;;5030520;28;20463;-84
2022/05/18 04:10:07;;;;;;;6.53;2.35;;;12.60;98.00;;;;;;5031107;28;20413;-85
2022/05/18 04:12:34;;;;;;;4.32;2.00;;;12.70;97.20;;;;;;5030368;28;20480;-84
2022/05/18 04:15:00;;;;;;;5.47;2.00;;;12.90;99.90;;;;;;5030350;28;20381;-84
2022/05/18 04:17:26;;;;;;;4.37;1.80;;;;;;;;;;5032416;28;20890;-87
2022/05/18 04:19:55;;;;;;;4.07;1.95;;;;;;;;;;5031935;28;20385;-84
2022/05/18 04:22:24;;;;;;;2.50;1.70;;;;;;;;;;5030230;28;20385;-86
2022/05/18 04:24:53;;;;;;;4.53;1.80;;;;;;;;;;5032118;28;20856;-84
2022/05/18 04:27:23;;;;;;;6.78;1.90;;;;;;;;;;5031662;28;20925;-86
2022/05/18 04:29:49;;;;;;;4.15;1.80;;;;;;;;;;5032235;28;20433;-86
2022/05/18 04:32:15;;;;;;;5.32;1.77;;;;;;;;;;5029991;28;20422;-85
2022/05/18 04:34:41;;;;;;;4.10;1.65;;;;;;;;;;5031642;28;20389;-86
2022/05/18 04:37:07;;;;;;;2.43;1.70;;;;;;;;;;5031890;28;20964;-83
2022/05/18 04:39:33;;;;;;;5.10;1.70;;;;;;;;;;5031020;28;20373;-85
2022/05/18 04:41:59;;;;;;;5.38;1.73;;;;;;;;;;5031503;28;20752;-85
2022/05/18 04:44:25;;;;;;;4.32;2.05;;;;;;;;;;5031703;28;20365;-86
2022/05/18 04:46:55;;;;;;;2.40;1.60;;;;;;;;;;5030897;28;20376;-84
2022/05/18 04:49:21;;;;;;;3.92;1.75;;;;;;;;;;5029659;28;20935;-85
2022/05/18 04:51:46;;;;;;;4.53;1.80;;;13.30;95.10;;;;;;5043750;28;20430;-86
2022/05/18 04:54:15;;;;;;;2.20;1.48;;;13.40;95.20;;;;;;5049488;28;20969;-89
2022/05/18 04:56:40;;;;;;;4.83;1.67;;;13.40;95.20;;;;;;5035363;28;20426;-85
2022/05/18 04:59:06;;;;;;;3.93;1.67;;;13.40;95.70;;;;;;5020823;28;20943;-85
2022/05/18 05:01:34;;;;;;;8.55;2.00;;;13.50;95.70;;;;;;5030424;28;20385;-87
2022/05/18 05:04:00;;;;;;;4.35;1.92;;;13.60;95.90;;;;;;5036717;28;20407;-84
2022/05/18 05:06:26;;;;;;;4.13;1.67;;;13.70;95.80;;;;;;5019453;28;20448;-86
2022/05/18 05:08:52;;;;;;;3.33;1.77;;;13.70;95.50;;;;;;5031191;28;20887;-86
2022/05/18 05:11:18;;;;;;;5.25;1.75;;;13.70;95.50;;;;;;5020449;28;20387;-86
2022/05/18 05:13:44;;;;;;;3.33;1.55;;;13.80;94.90;;;;;;5012153;28;20386;-87
2022/05/18 05:16:11;;;;;;;5.83;1.87;;;13.90;95.80;;;;;;5029029;28;20378;-84
2022/05/18 05:18:38;;;;;;;4.60;1.88;;;14.00;94.60;;;;;;5031127;28;20405;-85
2022/05/18 05:21:04;;;;;;;3.65;1.73;;;14.00;94.50;;;;;;5030994;28;20863;-86
2022/05/18 05:23:29;;;;;;;4.72;2.05;;;13.90;95.50;;;;;;5028977;28;20805;-83
2022/05/18 05:25:56;;;;;;;4.53;1.90;;;14.00;94.20;;;;;;5030494;28;20520;-87
2022/05/18 05:28:22;;;;;;;7.35;2.13;;;14.10;94.80;;;;;;5028782;28;20385;-88
2022/05/18 05:30:48;;;;;;;11.32;1.92;;;14.20;95.50;;;;;;5030315;28;20546;-86
2022/05/18 05:33:13;;;;;;;4.18;1.90;;;14.40;95.90;;;;;;5028749;28;20390;-85
2022/05/18 05:35:42;;;;;;;5.50;2.03;;;14.60;95.00;;;;;;5028534;28;20405;-87
2022/05/18 05:38:12;;;;;;;2.67;1.80;;;14.70;94.60;;;;;;5029983;28;20393;-90
2022/05/18 05:40:39;;;;;;;5.10;1.85;;;14.70;93.90;;;;;;5030120;28;20385;-85
2022/05/18 05:43:09;;;;;;;2.93;1.97;;;14.80;94.70;;;;;;5047272;28;20390;-87
2022/05/18 05:45:36;;;;;;;3.88;1.80;;;15.00;94.50;;;;;;5048807;28;20423;-85
2022/05/18 05:48:02;;;;;;;3.30;1.58;;;15.20;94.40;;;;;;5048376;28;21093;-84
2022/05/18 05:50:30;;;;;;;6.22;2.10;;;15.30;97.90;;;;;;5048943;28;20866;-85
2022/05/18 05:52:58;;;;;;;3.80;2.15;;;;;;;;;;5030076;28;20428;-89
2022/05/18 05:55:26;;;;;;;5.63;1.92;;;15.60;92.50;;;;;;5030484;28;20377;-87
2022/05/18 05:57:56;;;;;;;5.15;2.00;;;15.50;93.80;;;;;;5028792;28;21208;-86
2022/05/18 06:00:23;;;;;;;3.80;2.00;;;15.50;93.00;;;;;;5029226;28;20393;-86
2022/05/18 06:02:50;;;;;;;4.43;2.30;;;15.60;93.80;;;;;;5029069;28;20860;-88
2022/05/18 06:05:19;;;;;;;3.17;2.22;;;15.70;93.70;;;;;;5028838;28;20393;-87
2022/05/18 06:07:44;;;;;;;4.97;2.15;;;15.80;93.60;;;;;;5029489;28;20791;-85
2022/05/18 06:10:10;;;;;;;6.00;2.27;;;15.90;92.70;;;;;;5029169;28;20409;-85
2022/05/18 06:12:38;;;;;;;4.63;2.30;;;15.80;93.60;;;;;;5029702;28;20473;-86
2022/05/18 06:15:05;;;;;;;6.78;2.33;;;15.80;93.00;;;;;;5028611;28;20476;-85
2022/05/18 06:17:30;;;;;;;3.45;2.10;;;15.80;93.80;;;;;;5030020;28;20369;-87
2022/05/18 06:19:56;;;;;;;9.18;2.20;;;15.90;94.60;;;;;;5029383;28;20962;-84
2022/05/18 06:22:21;;;;;;;6.13;2.37;;;16.10;94.20;;;;;;5030943;28;20439;-87
2022/05/18 06:24:51;;;;;;;5.55;2.45;;;16.10;93.20;;;;;;5048371;28;20393;-84
2022/05/18 06:27:18;;;;;;;4.63;2.15;;;16.20;92.80;;;;;;5049244;28;20877;-86
2022/05/18 06:29:44;;;;;;;3.80;2.00;;;16.40;94.30;;;;;;5048399;28;20439;-84
2022/05/18 06:32:10;;;;;;;7.50;2.43;;;16.60;93.50;;;;;;5048693;28;20372;-83
2022/05/18 06:34:36;;;;;;;4.25;1.80;;;16.70;92.40;;;;;;5049996;28;20865;-84
2022/05/18 06:37:03;;;;;;;4.75;2.25;;;16.80;93.50;;;;;;5022559;28;20391;-84
2022/05/18 06:39:29;;;;;;;4.97;2.63;;;17.10;93.30;;;;;;5013048;28;20442;-87
2022/05/18 06:41:58;;;;;;;5.38;2.38;;;17.60;93.30;;;;;;5020602;28;20472;-87
2022/05/18 06:44:24;;;;;;;7.28;2.33;;;18.00;92.00;;;;;;5032031;28;20405;-86
2022/05/18 06:46:51;;;;;;;5.80;2.58;;;18.40;92.00;;;;;;5032550;28;20476;-84
2022/05/18 06:49:17;;;;;;;4.72;2.40;;;18.80;92.10;;;;;;5033316;28;20404;-87
2022/05/18 06:51:45;;;;;;;5.10;2.20;;;19.00;90.40;;;;;;5035484;28;20366;-86
2022/05/18 06:54:12;;;;;;;6.63;2.40;;;19.00;90.70;;;;;;5032348;28;20404;-85
2022/05/18 06:56:42;;;;;;;5.82;2.55;;;19.10;90.70;;;;;;5022078;28;20464;-85
2022/05/18 06:59:08;;;;;;;4.72;2.15;;;19.20;89.90;;;;;;5013836;28;20418;-86
2022/05/18 07:01:34;;;;;;;4.28;2.60;;;19.30;90.70;;;;;;5013833;28;20383;-86
2022/05/18 07:04:01;;;;;;;4.65;2.50;;;19.40;90.00;;;;;;5013992;28;20379;-86
2022/05/18 07:06:29;;;;;;;4.97;2.50;;;19.40;90.10;;;;;;5012889;28;20395;-87
2022/05/18 07:08:56;;;;;;;5.03;2.43;;;19.30;90.90;;;;;;5011562;28;20905;-86
2022/05/18 07:11:23;;;;;;;5.63;2.40;;;19.20;90.20;;;;;;5012033;28;20409;-85
2022/05/18 07:13:51;;;;;;;5.97;2.77;;;19.10;91.10;;;;;;5012905;28;20390;-86
2022/05/18 07:16:26;;;;;;;6.15;2.80;;;19.10;90.70;;;;;;5011516;28;20410;-85
2022/05/18 07:18:53;;;;;;;5.32;2.65;;;18.90;92.30;;;;;;5013208;28;20861;-86
2022/05/18 07:21:20;;;;;;;6.68;3.08;;;18.80;91.10;;;;;;5011632;28;20391;-85
2022/05/18 07:23:47;;;;;;;6.77;2.77;;;18.90;91.60;;;;;;5022691;28;20537;-86
2022/05/18 07:26:14;;;;;;;5.85;2.78;;;18.90;91.40;;;;;;5012420;28;20386;-85
2022/05/18 07:28:40;;;;;;;6.50;2.70;;;19.00;91.90;;;;;;5010761;28;20391;-87
2022/05/18 07:31:07;;;;;;;5.07;2.83;;;19.20;92.80;;;;;;5012858;28;20691;-84
2022/05/18 07:33:33;;;;;;;5.50;2.60;;;19.50;91.70;;;;;;5012076;28;20383;-86
2022/05/18 07:35:59;;;;;;;5.33;2.53;;;19.60;92.80;;;;;;5011301;28;20913;-87
2022/05/18 07:38:26;;;;;;;5.45;2.45;;;19.70;90.90;;;;;;5029033;28;20969;-86
2022/05/18 07:40:52;;;;;;;4.72;2.53;;;19.80;92.20;;;;;;5031032;28;20389;-86
2022/05/18 07:43:18;;;;;;;6.45;2.85;;;19.90;91.40;;;;;;5031814;28;20381;-85
2022/05/18 07:45:49;;;;;;;6.93;3.03;;;19.80;91.40;;;;;;5031268;28;20744;-85
2022/05/18 07:48:17;;;;;;;9.65;3.50;;;19.70;91.40;;;;;;5019402;28;20379;-85
2022/05/18 07:50:43;;;;;;;5.30;2.90;;;19.70;92.20;;;;;;5012491;28;20438;-86
2022/05/18 07:53:10;;;;;;;8.13;3.10;;;19.90;92.10;;;;;;5012389;28;20418;-88
2022/05/18 07:55:35;;;;;;;4.63;2.90;;;19.90;92.80;;;;;;5010949;28;20453;-86
2022/05/18 07:58:06;;;;;;;5.28;2.70;;;20.10;93.80;;;;;;5010853;28;20412;-85
2022/05/18 08:00:33;;;;;;;4.57;2.65;;;20.40;93.10;;;;;;5013238;28;20483;-85
2022/05/18 08:02:58;;;;;;;4.50;2.42;;;20.60;92.00;;;;;;5012076;28;21023;-86
2022/05/18 08:05:24;;;;;;;8.03;2.93;;;20.70;91.40;;;;;;5012368;28;20388;-86
2022/05/18 08:07:50;;;;;;;5.95;3.05;;;20.80;91.80;;;;;;5028772;28;20382;-87
2022/05/18 08:15:50;;;;;;;4.85;2.92;;;20.40;91.80;;;;;;5012700;28;20382;-85
2022/05/18 08:18:18;;;;;;;4.32;2.80;;;20.20;91.80;;;;;;5027563;28;20476;-88
2022/05/18 08:20:46;;;;;;;5.18;2.95;;;20.30;92.40;;;;;;5027364;28;20459;-89
2022/05/18 08:23:12;;;;;;;5.80;2.90;;;20.60;93.40;;;;;;5011598;28;20766;-85
2022/05/18 08:25:38;;;;;;;5.70;3.30;;;20.80;92.30;;;;;;5013769;28;20861;-85
2022/05/18 08:28:08;;;;;;;10.48;3.63;;;21.00;92.40;;;;;;5011530;28;20707;-86
2022/05/18 08:30:34;;;;;;;6.53;2.90;;;21.10;92.30;;;;;;5012321;28;20503;-86
2022/05/18 08:33:00;;;;;;;8.93;3.30;;;21.30;92.00;;;;;;5012454;28;20383;-87
2022/05/18 08:35:27;;;;;;;4.72;2.88;;;21.40;92.40;;;;;;5018356;28;20401;-88
2022/05/18 08:37:53;;;;;;;7.10;3.47;;;21.60;92.70;;;;;;5030288;28;20558;-87
2022/05/18 08:40:28;;;;;;;5.15;3.75;;;21.70;92.00;;;;;;5030867;28;20415;-86
2022/05/18 08:43:13;;;;;;;6.15;3.53;;;21.50;91.80;;;;;;5030874;28;20532;-87
2022/05/18 08:45:46;;;;;;;6.45;3.55;;;21.30;92.40;;;;;;5028375;28;20484;-84
2022/05/18 08:48:49;;;;;;;9.65;3.58;;;21.30;93.00;;;;;;5030309;28;20390;-86
2022/05/18 08:51:40;;;;;;;7.93;3.25;;;21.50;93.00;;;;;;5015316;28;20395;-86
2022/05/18 08:54:49;;;;;;;5.95;3.05;;;21.70;93.10;;;;;;5010832;28;20391;-84
2022/05/18 08:57:21;;;;;;;5.80;3.40;;;22.00;93.70;;;;;;5010131;28;20478;-87
2022/05/18 08:59:52;;;;;;;6.00;3.05;;;22.30;93.40;;;;;;5011501;28;20904;-83
2022/05/18 09:02:23;;;;;;;6.07;3.22;;;22.50;92.80;;;;;;5021491;28;20394;-87
2022/05/18 09:05:01;;;;;;;8.43;3.45;;;22.80;92.60;;;;;;5011093;28;20379;-85
2022/05/18 09:07:36;;;;;;;5.15;3.35;;;22.70;92.00;;;;;;5010998;28;20376;-88
2022/05/18 09:10:16;;;;;;;8.07;3.20;;;22.80;91.90;;;;;;5010041;28;20481;-85
2022/05/18 09:12:51;;;;;;;6.43;3.75;;;22.90;93.10;;;;;;5011493;28;20387;-83
2022/05/18 09:15:34;;;;;;;6.60;3.30;;;23.10;93.70;;;;;;5010124;28;20446;-85
2022/05/18 09:18:21;;;;;;;4.63;2.97;;;23.30;93.20;;;;;;5010676;28;20402;-85
2022/05/18 09:21:15;;;;;;;5.70;3.30;;;23.40;92.90;;;;;;5008928;28;20399;-87
2022/05/18 09:24:07;;;;;;;6.32;3.28;;;23.40;92.50;;;;;;5011107;28;20490;-87
2022/05/18 09:27:01;;;;;;;4.85;3.38;;;23.60;92.90;;;;;;5009506;28;20381;-87
2022/05/18 09:29:36;;;;;;;6.95;3.38;;;23.50;92.30;;;;;;5011098;28;20411;-86
2022/05/18 09:32:15;;;;;;;8.52;3.90;;;23.40;93.60;;;;;;5009986;28;20371;-85
2022/05/18 09:34:54;;;;;;;7.03;3.50;;;23.40;93.10;;;;;;5011405;28;20758;-85
2022/05/18 09:37:25;;;;;;;8.05;3.60;;;23.40;93.40;;;;;;5012556;28;20419;-85
2022/05/18 09:40:08;;;;;;;5.70;3.70;;;23.40;93.00;;;;;;5022119;28;20472;-85
2022/05/18 09:42:40;;;;;;;7.88;3.78;;;23.40;92.90;;;;;;5023311;28;20458;-85
2022/05/18 09:45:22;;;;;;;4.63;3.50;;;23.60;93.10;;;;;;5011045;28;20446;-84
2022/05/18 09:48:15;;;;;;;4.32;3.45;;;23.50;93.10;;;;;;5012963;28;20391;-88
2022/05/18 09:50:45;;;;;;;4.53;3.60;;;23.30;93.40;;;;;;5008989;28;20434;-85
2022/05/18 09:53:11;;;;;;;6.35;3.60;;;23.50;94.30;;;;;;5012215;28;20412;-84
2022/05/18 09:55:38;;;;;;;9.60;4.40;;;23.60;93.80;;;;;;5010271;28;20391;-85
2022/05/18 09:58:15;;;;;;;7.00;4.20;;;23.60;94.00;;;;;;5013781;28;20383;-86
2022/05/18 10:00:41;;;;;;;5.55;3.90;;;23.70;94.30;;;;;;5025897;28;20562;-85
2022/05/18 10:08:48;;;;;;;7.40;3.97;;;23.40;95.40;;;;;;5048654;28;20405;-85
2022/05/18 10:11:24;;;;;;;8.03;4.50;;;23.70;95.40;;;;;;5050308;28;20380;-84
2022/05/18 10:14:08;;;;;;;7.97;4.07;;;23.80;93.60;;;;;;5051967;28;20386;-85
2022/05/18 10:16:41;;;;;;;5.28;4.30;;;23.80;94.70;;;;;;5034354;28;20443;-84
2022/05/18 10:19:27;;;;;;;6.37;4.20;;;23.80;95.40;;;;;;5030697;28;20899;-86
2022/05/18 10:22:00;;;;;;;7.00;5.27;;;24.00;95.10;;;;;;5029376;28;20810;-85
2022/05/18 10:24:44;;;;;;;7.53;5.32;;;24.10;95.60;;;;;;5024302;28;20397;-89
2022/05/18 10:27:16;;;;;;;8.30;4.57;;;24.30;94.20;;;;;;5026377;28;20410;-85
2022/05/18 10:29:49;;;;;;;6.18;4.53;;;24.40;94.00;;;;;;5043179;28;21122;-88
2022/05/18 10:32:23;;;;;;;8.32;5.35;;;24.30;94.40;;;;;;5050096;28;20388;-86
2022/05/18 10:34:52;;;;;;;7.95;5.38;;;24.30;95.20;;;;;;5050126;28;20444;-83
2022/05/18 10:37:30;;;;;;;12.23;6.72;;;24.30;94.10;;;;;;5040554;28;20794;-86
2022/05/18 10:40:20;;;;;;;9.48;6.10;;;24.20;95.20;;;;;;5028413;28;20424;-84
2022/05/18 10:42:48;;;;;;;8.37;5.57;;;24.30;96.30;;;;;;5016950;28;20396;-85
2022/05/18 10:45:26;;;;;;;8.80;4.90;;;24.40;94.60;;;;;;5028819;28;20465;-84
2022/05/18 10:47:54;;;;;;;7.95;5.65;;;24.50;94.50;;;;;;5030781;28;20472;-88
2022/05/18 10:50:23;;;;;;;8.25;5.40;;;24.60;95.20;;;;;;5012954;28;20421;-86
2022/05/18 10:52:51;;;;;;;10.65;6.18;;;24.70;94.70;;;;;;5030108;28;20456;-85
2022/05/18 10:55:20;;;;;;;7.85;5.88;;;24.60;94.00;;;;;;5030256;28;20373;-86
2022/05/18 10:58:03;;;;;;;7.85;6.35;;;24.60;94.10;;;;;;5028505;28;20384;-86
2022/05/18 11:00:47;;;;;;;9.73;6.35;;;24.60;93.30;;;;;;5029515;28;20397;-88
2022/05/18 11:03:41;;;;;;;7.78;6.28;;;24.40;93.70;;;;;;5029754;28;20385;-85
2022/05/18 11:06:33;;;;;;;9.52;5.63;;;24.40;94.70;;;;;;5031408;28;20373;-87
2022/05/18 11:09:04;;;;;;;9.23;5.85;;;24.60;95.40;;;;;;5025479;28;20516;-87
2022/05/18 11:11:44;;;;;;;11.82;6.50;;;24.80;95.10;;;;;;5028547;28;20794;-86
2022/05/18 11:14:37;;;;;;;11.57;6.13;;;24.60;92.70;;;;;;5029384;28;20381;-88
2022/05/18 11:17:34;;;;;;;11.40;6.13;;;24.40;94.10;;;;;;5029366;28;20401;-87
2022/05/18 11:20:06;;;;;;;23.30;7.05;;;24.40;93.90;;;;;;5028714;28;21037;-86
2022/05/18 11:22:59;;;;;;;9.13;6.17;;;24.30;93.70;;;;;;5032672;28;20369;-86
2022/05/18 11:25:57;;;;;;;10.18;6.40;;;24.30;93.80;;;;;;5028863;28;20389;-86
2022/05/18 11:28:42;;;;;;;8.93;6.15;;;24.30;94.00;;;;;;4991351;28;20390;-84
2022/05/18 11:31:37;;;;;;;7.43;5.40;;;24.40;94.40;;;;;;5015027;28;20395;-88
2022/05/18 11:34:27;;;;;;;7.28;5.20;;;24.50;93.20;;;;;;5033560;28;20385;-85
2022/05/18 11:37:12;;;;;;;7.82;5.30;;;24.40;93.90;;;;;;5033050;28;20384;-85
2022/05/18 11:39:38;;;;;;;7.88;5.47;;;24.40;94.50;;;;;;5032136;28;20439;-87
2022/05/18 11:42:07;;;;;;;10.50;5.43;;;24.40;93.60;;;;;;5040231;28;20434;-85
2022/05/18 11:44:47;;;;;;;8.52;5.38;;;24.40;94.40;;;;;;5035428;28;20420;-85
2022/05/18 11:47:38;;;;;;;11.05;5.80;;;24.50;94.10;;;;;;5032697;28;20476;-84
2022/05/18 11:50:07;;;;;;;8.35;5.45;;;24.60;93.00;;;;;;5032218;28;20405;-86
2022/05/18 11:52:42;;;;;;;8.60;5.05;;;24.60;92.70;;;;;;5032889;28;20382;-87
2022/05/18 11:55:30;;;;;;;9.82;4.93;;;24.60;92.90;;;;;;5031550;28;20389;-85
2022/05/18 11:58:53;;;;;;;7.20;5.10;;;24.50;92.70;;;;;;5032763;28;20465;-86
2022/05/18 12:01:50;;;;;;;7.53;4.30;;;24.60;92.90;;;;;;4969943;28;21069;-85
2022/05/18 12:04:35;;;;;;;7.53;4.80;;;24.70;92.50;;;;;;5032081;28;20481;-85
2022/05/18 12:07:39;;;;;;;9.40;5.45;;;24.60;92.60;;;;;;5033035;28;20369;-85
2022/05/18 12:10:24;;;;;;;7.72;5.00;;;24.50;91.90;;;;;;5031579;28;20416;-85
2022/05/18 12:13:06;;;;;;;6.32;4.50;;;24.40;92.50;;;;;;5034026;28;20392;-84
2022/05/18 12:16:11;;;;;;;5.63;4.82;;;24.50;93.30;;;;;;5032243;28;20377;-84
2022/05/18 12:19:05;;;;;;;8.93;4.82;;;24.60;92.30;;;;;;5033411;28;20381;-87
2022/05/18 12:21:48;;;;;;;7.10;4.60;;;24.60;93.00;;;;;;5032853;28;20422;-84
2022/05/18 12:24:14;;;;;;;10.18;4.70;;;24.70;92.50;;;;;;5032847;28;20386;-86
2022/05/18 12:26:44;;;;;;;7.05;4.35;;;24.60;92.90;;;;;;5033460;28;20527;-85
2022/05/18 12:29:11;;;;;;;13.90;4.95;;;24.70;92.70;;;;;;5032624;28;20505;-84
2022/05/18 12:31:38;;;;;;;8.83;4.40;;;24.80;92.30;;;;;;5033199;28;20447;-85
2022/05/18 12:34:13;;;;;;;6.25;4.78;;;24.90;93.30;;;;;;5032210;28;20782;-84
2022/05/18 12:36:45;;;;;;;13.75;5.57;;;24.90;92.90;;;;;;5031937;28;20418;-85
2022/05/18 12:39:14;;;;;;;8.18;5.00;;;24.90;92.30;;;;;;5034036;28;20389;-85
2022/05/18 12:42:00;;;;;;;10.50;4.33;;;25.00;92.80;;;;;;5032840;28;20460;-85
2022/05/18 12:44:40;;;;;;;6.65;5.00;;;25.20;92.80;;;;;;5032737;28;20471;-86
2022/05/18 12:47:26;;;;;;;6.65;4.20;;;25.30;92.60;;;;;;5033253;28;20408;-88
2022/05/18 12:50:02;;;;;;;6.80;4.20;;;25.30;90.80;;;;;;5031674;28;20405;-88
2022/05/18 12:52:50;;;;;;;10.35;4.25;;;25.00;91.30;;;;;;5032391;28;20469;-85
2022/05/18 12:55:33;;;;;;;6.85;4.00;;;25.10;91.80;;;;;;5031251;28;20398;-85
2022/05/18 12:58:12;;;;;;;6.73;4.17;;;25.10;91.10;;;;;;5031538;28;20393;-86
2022/05/18 13:00:41;;;;;;;5.45;3.60;;;25.30;91.60;;;;;;5032587;28;20931;-87
2022/05/18 13:03:09;;;;;;;5.32;3.40;;;25.40;90.50;;;;;;5032561;28;20804;-84
2022/05/18 13:05:46;;;;;;;5.63;3.85;;;25.50;90.50;;;;;;5030927;28;20381;-87
2022/05/18 13:08:18;;;;;;;6.65;3.40;;;25.60;89.90;;;;;;5031498;28;20397;-88
2022/05/18 13:11:05;;;;;;;7.22;3.45;;;25.70;90.20;;;;;;5031933;28;20401;-84
2022/05/18 13:13:53;;;;;;;6.32;3.42;;;25.80;87.50;;;;;;5031470;28;20401;-86
2022/05/18 13:16:33;;;;;;;6.63;3.72;;;25.70;87.00;;;;;;5029409;28;20377;-82
2022/05/18 13:18:59;;;;;;;7.18;3.85;;;25.60;87.80;;;;;;5032771;28;20386;-86
2022/05/18 13:21:30;;;;;;;5.65;3.35;;;25.80;87.50;;;;;;5033109;28;20432;-85
2022/05/18 13:24:12;;;;;;;6.32;3.45;;;25.90;88.00;;;;;;5032587;28;20416;-85
2022/05/18 13:26:45;;;;;;;8.07;3.35;;;26.00;87.60;;;;;;5031763;28;20451;-84
2022/05/18 13:29:21;;;;;;;8.65;4.20;;;26.30;87.20;;;;;;5031517;28;20507;-87